sensor_id;sensor_type;location;lat;lon;timestamp;pressure;altitude;pressure_sealevel;temperature
75822;BMP180;64454;51.984;9.838;2024-01-16T00:01:20;98920.00;;;2.50
75822;BMP180;64454;51.984;9.838;2024-01-16T00:03:46;98919.00;;;2.50
75822;BMP180;64454;51.984;9.838;2024-01-16T00:06:13;98930.00;;;2.50
75822;BMP180;64454;51.984;9.838;2024-01-16T00:08:39;98935.00;;;2.60
75822;BMP180;64454;51.984;9.838;2024-01-16T00:11:05;98941.00;;;2.60
75822;BMP180;64454;51.984;9.838;2024-01-16T00:13:32;98941.00;;;2.60
75822;BMP180;64454;51.984;9.838;2024-01-16T00:15:58;98948.00;;;2.60
75822;BMP180;64454;51.984;9.838;2024-01-16T00:18:25;98962.00;;;2.70
75822;BMP180;64454;51.984;9.838;2024-01-16T00:20:51;98948.00;;;2.60
75822;BMP180;64454;51.984;9.838;2024-01-16T00:23:16;98958.00;;;2.40
75822;BMP180;64454;51.984;9.838;2024-01-16T00:25:43;98956.00;;;2.60
75822;BMP180;64454;51.984;9.838;2024-01-16T00:28:09;98966.00;;;2.70
75822;BMP180;64454;51.984;9.838;2024-01-16T00:30:35;98975.00;;;2.50
75822;BMP180;64454;51.984;9.838;2024-01-16T00:33:02;98979.00;;;2.40
75822;BMP180;64454;51.984;9.838;2024-01-16T00:35:28;98979.00;;;2.60
75822;BMP180;64454;51.984;9.838;2024-01-16T00:37:55;98990.00;;;2.60
75822;BMP180;64454;51.984;9.838;2024-01-16T00:40:21;98976.00;;;2.70
75822;BMP180;64454;51.984;9.838;2024-01-16T00:42:47;98981.00;;;2.60
75822;BMP180;64454;51.984;9.838;2024-01-16T00:45:13;98989.00;;;2.60
75822;BMP180;64454;51.984;9.838;2024-01-16T00:47:40;98998.00;;;2.80
75822;BMP180;64454;51.984;9.838;2024-01-16T00:50:07;98995.00;;;2.60
75822;BMP180;64454;51.984;9.838;2024-01-16T00:52:34;99008.00;;;2.80
75822;BMP180;64454;51.984;9.838;2024-01-16T00:55:01;99003.00;;;2.80
75822;BMP180;64454;51.984;9.838;2024-01-16T00:57:27;99004.00;;;2.60
75822;BMP180;64454;51.984;9.838;2024-01-16T00:59:53;99007.00;;;2.80
75822;BMP180;64454;51.984;9.838;2024-01-16T01:02:19;99015.00;;;2.60
75822;BMP180;64454;51.984;9.838;2024-01-16T01:04:46;99009.00;;;2.70
75822;BMP180;64454;51.984;9.838;2024-01-16T01:07:13;99005.00;;;2.60
75822;BMP180;64454;51.984;9.838;2024-01-16T01:09:40;99013.00;;;2.70
75822;BMP180;64454;51.984;9.838;2024-01-16T01:12:06;99016.00;;;2.50
75822;BMP180;64454;51.984;9.838;2024-01-16T01:14:33;99008.00;;;2.60
75822;BMP180;64454;51.984;9.838;2024-01-16T01:16:59;99012.00;;;2.70
75822;BMP180;64454;51.984;9.838;2024-01-16T01:19:25;99028.00;;;2.50
75822;BMP180;64454;51.984;9.838;2024-01-16T01:21:52;99021.00;;;2.60
75822;BMP180;64454;51.984;9.838;2024-01-16T01:24:18;99028.00;;;2.70
75822;BMP180;64454;51.984;9.838;2024-01-16T01:26:45;99025.00;;;2.40
75822;BMP180;64454;51.984;9.838;2024-01-16T01:29:11;99040.00;;;2.50
75822;BMP180;64454;51.984;9.838;2024-01-16T01:31:37;99022.00;;;2.30
75822;BMP180;64454;51.984;9.838;2024-01-16T01:34:03;99037.00;;;2.40
75822;BMP180;64454;51.984;9.838;2024-01-16T01:36:30;99047.00;;;2.50
75822;BMP180;64454;51.984;9.838;2024-01-16T01:38:56;99042.00;;;2.40
75822;BMP180;64454;51.984;9.838;2024-01-16T01:41:22;99055.00;;;2.40
75822;BMP180;64454;51.984;9.838;2024-01-16T01:43:49;99058.00;;;2.20
75822;BMP180;64454;51.984;9.838;2024-01-16T01:46:18;99052.00;;;1.90
75822;BMP180;64454;51.984;9.838;2024-01-16T01:48:47;99050.00;;;2.10
75822;BMP180;64454;51.984;9.838;2024-01-16T01:51:16;99058.00;;;2.10
75822;BMP180;64454;51.984;9.838;2024-01-16T01:53:44;99043.00;;;2.10
75822;BMP180;64454;51.984;9.838;2024-01-16T01:56:16;99060.00;;;2.10
75822;BMP180;64454;51.984;9.838;2024-01-16T01:58:48;99059.00;;;2.10
75822;BMP180;64454;51.984;9.838;2024-01-16T02:01:17;99055.00;;;2.40
75822;BMP180;64454;51.984;9.838;2024-01-16T02:03:46;99057.00;;;2.40
75822;BMP180;64454;51.984;9.838;2024-01-16T02:06:13;99056.00;;;2.30
75822;BMP180;64454;51.984;9.838;2024-01-16T02:08:41;99060.00;;;2.40
75822;BMP180;64454;51.984;9.838;2024-01-16T02:11:08;99058.00;;;2.50
75822;BMP180;64454;51.984;9.838;2024-01-16T02:13:35;99070.00;;;2.20
75822;BMP180;64454;51.984;9.838;2024-01-16T02:16:01;99069.00;;;2.40
75822;BMP180;64454;51.984;9.838;2024-01-16T02:18:29;99084.00;;;2.30
75822;BMP180;64454;51.984;9.838;2024-01-16T02:21:00;99083.00;;;2.40
75822;BMP180;64454;51.984;9.838;2024-01-16T02:23:28;99079.00;;;2.30
75822;BMP180;64454;51.984;9.838;2024-01-16T02:25:55;99095.00;;;2.40
75822;BMP180;64454;51.984;9.838;2024-01-16T02:28:21;99087.00;;;2.40
75822;BMP180;64454;51.984;9.838;2024-01-16T02:30:47;99101.00;;;2.20
75822;BMP180;64454;51.984;9.838;2024-01-16T02:33:13;99095.00;;;2.30
75822;BMP180;64454;51.984;9.838;2024-01-16T02:35:39;99100.00;;;2.20
75822;BMP180;64454;51.984;9.838;2024-01-16T02:38:05;99103.00;;;2.30
75822;BMP180;64454;51.984;9.838;2024-01-16T02:40:32;99106.00;;;2.20
75822;BMP180;64454;51.984;9.838;2024-01-16T02:42:58;99107.00;;;2.10
75822;BMP180;64454;51.984;9.838;2024-01-16T02:45:25;99116.00;;;2.10
75822;BMP180;64454;51.984;9.838;2024-01-16T02:47:51;99106.00;;;2.30
75822;BMP180;64454;51.984;9.838;2024-01-16T02:50:17;99104.00;;;2.50
75822;BMP180;64454;51.984;9.838;2024-01-16T02:52:45;99110.00;;;2.50
75822;BMP180;64454;51.984;9.838;2024-01-16T02:55:12;99111.00;;;2.40
75822;BMP180;64454;51.984;9.838;2024-01-16T02:57:39;99115.00;;;2.50
75822;BMP180;64454;51.984;9.838;2024-01-16T03:00:06;99125.00;;;2.50
75822;BMP180;64454;51.984;9.838;2024-01-16T03:02:34;99117.00;;;2.40
75822;BMP180;64454;51.984;9.838;2024-01-16T03:05:02;99131.00;;;2.40
75822;BMP180;64454;51.984;9.838;2024-01-16T03:07:29;99136.00;;;2.50
75822;BMP180;64454;51.984;9.838;2024-01-16T03:09:55;99139.00;;;2.40
75822;BMP180;64454;51.984;9.838;2024-01-16T03:12:22;99147.00;;;2.40
75822;BMP180;64454;51.984;9.838;2024-01-16T03:14:48;99149.00;;;2.40
75822;BMP180;64454;51.984;9.838;2024-01-16T03:17:15;99159.00;;;2.50
75822;BMP180;64454;51.984;9.838;2024-01-16T03:19:41;99154.00;;;2.30
75822;BMP180;64454;51.984;9.838;2024-01-16T03:22:09;99151.00;;;2.40
75822;BMP180;64454;51.984;9.838;2024-01-16T03:24:35;99155.00;;;2.50
75822;BMP180;64454;51.984;9.838;2024-01-16T03:27:01;99153.00;;;2.30
75822;BMP180;64454;51.984;9.838;2024-01-16T03:29:27;99161.00;;;2.30
75822;BMP180;64454;51.984;9.838;2024-01-16T03:31:54;99161.00;;;2.50
75822;BMP180;64454;51.984;9.838;2024-01-16T03:34:20;99168.00;;;2.40
75822;BMP180;64454;51.984;9.838;2024-01-16T03:36:46;99161.00;;;2.40
75822;BMP180;64454;51.984;9.838;2024-01-16T03:39:12;99169.00;;;2.40
75822;BMP180;64454;51.984;9.838;2024-01-16T03:41:39;99158.00;;;2.40
75822;BMP180;64454;51.984;9.838;2024-01-16T03:44:06;99168.00;;;2.50
75822;BMP180;64454;51.984;9.838;2024-01-16T03:46:32;99167.00;;;2.30
75822;BMP180;64454;51.984;9.838;2024-01-16T03:48:58;99174.00;;;2.30
75822;BMP180;64454;51.984;9.838;2024-01-16T03:51:25;99173.00;;;2.40
75822;BMP180;64454;51.984;9.838;2024-01-16T03:53:51;99181.00;;;2.30
75822;BMP180;64454;51.984;9.838;2024-01-16T03:56:17;99188.00;;;2.50
75822;BMP180;64454;51.984;9.838;2024-01-16T03:58:43;99189.00;;;2.40
75822;BMP180;64454;51.984;9.838;2024-01-16T04:01:09;99196.00;;;2.30
75822;BMP180;64454;51.984;9.838;2024-01-16T04:03:35;99192.00;;;2.50
75822;BMP180;64454;51.984;9.838;2024-01-16T04:06:02;99201.00;;;2.50
75822;BMP180;64454;51.984;9.838;2024-01-16T04:08:28;99191.00;;;2.30
75822;BMP180;64454;51.984;9.838;2024-01-16T04:10:54;99197.00;;;2.50
75822;BMP180;64454;51.984;9.838;2024-01-16T04:13:20;99196.00;;;2.30
75822;BMP180;64454;51.984;9.838;2024-01-16T04:15:46;99191.00;;;2.30
75822;BMP180;64454;51.984;9.838;2024-01-16T04:18:12;99199.00;;;2.20
75822;BMP180;64454;51.984;9.838;2024-01-16T04:20:39;99191.00;;;2.10
75822;BMP180;64454;51.984;9.838;2024-01-16T04:23:05;99183.00;;;2.10
75822;BMP180;64454;51.984;9.838;2024-01-16T04:25:31;99188.00;;;2.00
75822;BMP180;64454;51.984;9.838;2024-01-16T04:27:58;99192.00;;;2.10
75822;BMP180;64454;51.984;9.838;2024-01-16T04:30:24;99178.00;;;1.90
75822;BMP180;64454;51.984;9.838;2024-01-16T04:32:50;99180.00;;;1.90
75822;BMP180;64454;51.984;9.838;2024-01-16T04:35:16;99180.00;;;2.00
75822;BMP180;64454;51.984;9.838;2024-01-16T04:37:42;99179.00;;;2.00
75822;BMP180;64454;51.984;9.838;2024-01-16T04:40:10;99193.00;;;2.10
75822;BMP180;64454;51.984;9.838;2024-01-16T04:42:36;99176.00;;;2.10
75822;BMP180;64454;51.984;9.838;2024-01-16T04:45:03;99184.00;;;1.90
75822;BMP180;64454;51.984;9.838;2024-01-16T04:47:29;99187.00;;;1.70
75822;BMP180;64454;51.984;9.838;2024-01-16T04:49:56;99185.00;;;1.90
75822;BMP180;64454;51.984;9.838;2024-01-16T04:52:22;99189.00;;;1.90
75822;BMP180;64454;51.984;9.838;2024-01-16T04:54:49;99201.00;;;1.80
75822;BMP180;64454;51.984;9.838;2024-01-16T04:57:15;99198.00;;;1.70
75822;BMP180;64454;51.984;9.838;2024-01-16T04:59:41;99200.00;;;1.90
75822;BMP180;64454;51.984;9.838;2024-01-16T05:02:07;99207.00;;;1.90
75822;BMP180;64454;51.984;9.838;2024-01-16T05:04:37;99207.00;;;1.90
75822;BMP180;64454;51.984;9.838;2024-01-16T05:07:04;99206.00;;;1.80
75822;BMP180;64454;51.984;9.838;2024-01-16T05:09:30;99206.00;;;1.70
75822;BMP180;64454;51.984;9.838;2024-01-16T05:11:56;99213.00;;;2.00
75822;BMP180;64454;51.984;9.838;2024-01-16T05:14:23;99211.00;;;2.00
75822;BMP180;64454;51.984;9.838;2024-01-16T05:16:50;99205.00;;;2.10
75822;BMP180;64454;51.984;9.838;2024-01-16T05:19:16;99208.00;;;2.20
75822;BMP180;64454;51.984;9.838;2024-01-16T05:21:42;99206.00;;;1.70
75822;BMP180;64454;51.984;9.838;2024-01-16T05:24:09;99213.00;;;2.20
75822;BMP180;64454;51.984;9.838;2024-01-16T05:26:35;99204.00;;;1.80
75822;BMP180;64454;51.984;9.838;2024-01-16T05:29:01;99208.00;;;1.90
75822;BMP180;64454;51.984;9.838;2024-01-16T05:31:27;99208.00;;;2.20
75822;BMP180;64454;51.984;9.838;2024-01-16T05:33:54;99213.00;;;2.20
75822;BMP180;64454;51.984;9.838;2024-01-16T05:36:20;99209.00;;;2.20
75822;BMP180;64454;51.984;9.838;2024-01-16T05:38:46;99215.00;;;2.20
75822;BMP180;64454;51.984;9.838;2024-01-16T05:41:13;99217.00;;;2.30
75822;BMP180;64454;51.984;9.838;2024-01-16T05:43:39;99214.00;;;2.30
75822;BMP180;64454;51.984;9.838;2024-01-16T05:46:05;99219.00;;;2.20
75822;BMP180;64454;51.984;9.838;2024-01-16T05:48:32;99210.00;;;2.20
75822;BMP180;64454;51.984;9.838;2024-01-16T05:50:58;99214.00;;;2.50
75822;BMP180;64454;51.984;9.838;2024-01-16T05:53:24;99205.00;;;2.30
75822;BMP180;64454;51.984;9.838;2024-01-16T05:55:50;99206.00;;;2.50
75822;BMP180;64454;51.984;9.838;2024-01-16T05:58:16;99208.00;;;2.30
75822;BMP180;64454;51.984;9.838;2024-01-16T06:00:43;99214.00;;;2.10
75822;BMP180;64454;51.984;9.838;2024-01-16T06:03:09;99216.00;;;2.00
75822;BMP180;64454;51.984;9.838;2024-01-16T06:05:35;99214.00;;;2.40
75822;BMP180;64454;51.984;9.838;2024-01-16T06:08:01;99215.00;;;2.50
75822;BMP180;64454;51.984;9.838;2024-01-16T06:10:28;99214.00;;;2.60
75822;BMP180;64454;51.984;9.838;2024-01-16T06:12:54;99221.00;;;2.40
75822;BMP180;64454;51.984;9.838;2024-01-16T06:15:20;99217.00;;;2.20
75822;BMP180;64454;51.984;9.838;2024-01-16T06:17:46;99218.00;;;2.20
75822;BMP180;64454;51.984;9.838;2024-01-16T06:20:13;99217.00;;;2.50
75822;BMP180;64454;51.984;9.838;2024-01-16T06:22:39;99214.00;;;2.20
75822;BMP180;64454;51.984;9.838;2024-01-16T06:25:06;99211.00;;;1.80
75822;BMP180;64454;51.984;9.838;2024-01-16T06:27:32;99217.00;;;2.00
75822;BMP180;64454;51.984;9.838;2024-01-16T06:29:59;99215.00;;;2.00
75822;BMP180;64454;51.984;9.838;2024-01-16T06:32:25;99218.00;;;2.20
75822;BMP180;64454;51.984;9.838;2024-01-16T06:34:51;99218.00;;;2.00
75822;BMP180;64454;51.984;9.838;2024-01-16T06:37:17;99219.00;;;2.30
75822;BMP180;64454;51.984;9.838;2024-01-16T06:39:44;99221.00;;;2.40
75822;BMP180;64454;51.984;9.838;2024-01-16T06:42:10;99223.00;;;2.20
75822;BMP180;64454;51.984;9.838;2024-01-16T06:44:36;99224.00;;;2.30
75822;BMP180;64454;51.984;9.838;2024-01-16T06:47:02;99228.00;;;1.80
75822;BMP180;64454;51.984;9.838;2024-01-16T06:49:28;99232.00;;;1.90
75822;BMP180;64454;51.984;9.838;2024-01-16T06:51:54;99225.00;;;2.10
75822;BMP180;64454;51.984;9.838;2024-01-16T06:54:20;99237.00;;;1.80
75822;BMP180;64454;51.984;9.838;2024-01-16T06:56:47;99228.00;;;2.00
75822;BMP180;64454;51.984;9.838;2024-01-16T06:59:14;99242.00;;;1.80
75822;BMP180;64454;51.984;9.838;2024-01-16T07:01:41;99238.00;;;1.80
75822;BMP180;64454;51.984;9.838;2024-01-16T07:04:07;99241.00;;;1.60
75822;BMP180;64454;51.984;9.838;2024-01-16T07:06:34;99239.00;;;1.80
75822;BMP180;64454;51.984;9.838;2024-01-16T07:09:00;99251.00;;;1.80
75822;BMP180;64454;51.984;9.838;2024-01-16T07:11:26;99251.00;;;1.80
75822;BMP180;64454;51.984;9.838;2024-01-16T07:13:52;99254.00;;;1.80
75822;BMP180;64454;51.984;9.838;2024-01-16T07:16:18;99244.00;;;1.70
75822;BMP180;64454;51.984;9.838;2024-01-16T07:18:45;99248.00;;;1.90
75822;BMP180;64454;51.984;9.838;2024-01-16T07:21:17;99249.00;;;1.90
75822;BMP180;64454;51.984;9.838;2024-01-16T07:23:44;99247.00;;;1.80
75822;BMP180;64454;51.984;9.838;2024-01-16T07:26:10;99250.00;;;2.20
75822;BMP180;64454;51.984;9.838;2024-01-16T07:28:36;99249.00;;;1.90
75822;BMP180;64454;51.984;9.838;2024-01-16T07:31:03;99250.00;;;2.20
75822;BMP180;64454;51.984;9.838;2024-01-16T07:33:29;99245.00;;;2.10
75822;BMP180;64454;51.984;9.838;2024-01-16T07:35:55;99244.00;;;2.20
75822;BMP180;64454;51.984;9.838;2024-01-16T07:38:21;99242.00;;;2.30
75822;BMP180;64454;51.984;9.838;2024-01-16T07:40:48;99238.00;;;2.20
75822;BMP180;64454;51.984;9.838;2024-01-16T07:43:13;99240.00;;;2.20
75822;BMP180;64454;51.984;9.838;2024-01-16T07:45:39;99238.00;;;2.10
75822;BMP180;64454;51.984;9.838;2024-01-16T07:48:06;99241.00;;;2.20
75822;BMP180;64454;51.984;9.838;2024-01-16T07:50:33;99248.00;;;2.20
75822;BMP180;64454;51.984;9.838;2024-01-16T07:52:59;99251.00;;;2.30
75822;BMP180;64454;51.984;9.838;2024-01-16T07:55:26;99253.00;;;2.20
75822;BMP180;64454;51.984;9.838;2024-01-16T07:57:54;99254.00;;;2.10
75822;BMP180;64454;51.984;9.838;2024-01-16T08:00:21;99255.00;;;2.10
75822;BMP180;64454;51.984;9.838;2024-01-16T08:02:47;99256.00;;;2.20
75822;BMP180;64454;51.984;9.838;2024-01-16T08:05:15;99264.00;;;2.50
75822;BMP180;64454;51.984;9.838;2024-01-16T08:07:42;99256.00;;;2.20
75822;BMP180;64454;51.984;9.838;2024-01-16T08:10:09;99265.00;;;2.20
75822;BMP180;64454;51.984;9.838;2024-01-16T08:12:35;99269.00;;;2.30
75822;BMP180;64454;51.984;9.838;2024-01-16T08:15:03;99275.00;;;2.40
75822;BMP180;64454;51.984;9.838;2024-01-16T08:17:30;99277.00;;;2.40
75822;BMP180;64454;51.984;9.838;2024-01-16T08:19:56;99272.00;;;2.20
75822;BMP180;64454;51.984;9.838;2024-01-16T08:22:22;99268.00;;;2.40
75822;BMP180;64454;51.984;9.838;2024-01-16T08:24:49;99265.00;;;2.30
75822;BMP180;64454;51.984;9.838;2024-01-16T08:27:15;99266.00;;;2.40
75822;BMP180;64454;51.984;9.838;2024-01-16T08:29:42;99270.00;;;2.10
75822;BMP180;64454;51.984;9.838;2024-01-16T08:32:08;99272.00;;;2.30
75822;BMP180;64454;51.984;9.838;2024-01-16T08:34:34;99272.00;;;2.60
75822;BMP180;64454;51.984;9.838;2024-01-16T08:37:01;99267.00;;;2.60
75822;BMP180;64454;51.984;9.838;2024-01-16T08:39:27;99267.00;;;2.90
75822;BMP180;64454;51.984;9.838;2024-01-16T08:41:54;99268.00;;;2.60
75822;BMP180;64454;51.984;9.838;2024-01-16T08:44:23;99267.00;;;2.60
75822;BMP180;64454;51.984;9.838;2024-01-16T08:46:49;99262.00;;;2.60
75822;BMP180;64454;51.984;9.838;2024-01-16T08:49:15;99265.00;;;2.60
75822;BMP180;64454;51.984;9.838;2024-01-16T08:51:41;99264.00;;;2.50
75822;BMP180;64454;51.984;9.838;2024-01-16T08:54:08;99270.00;;;2.70
75822;BMP180;64454;51.984;9.838;2024-01-16T08:56:34;99279.00;;;2.80
75822;BMP180;64454;51.984;9.838;2024-01-16T08:59:00;99274.00;;;2.50
75822;BMP180;64454;51.984;9.838;2024-01-16T09:01:26;99270.00;;;2.60
75822;BMP180;64454;51.984;9.838;2024-01-16T09:03:52;99270.00;;;3.20
75822;BMP180;64454;51.984;9.838;2024-01-16T09:06:19;99271.00;;;3.10
75822;BMP180;64454;51.984;9.838;2024-01-16T09:08:46;99269.00;;;2.50
75822;BMP180;64454;51.984;9.838;2024-01-16T09:11:11;99273.00;;;2.80
75822;BMP180;64454;51.984;9.838;2024-01-16T09:13:38;99265.00;;;3.00
75822;BMP180;64454;51.984;9.838;2024-01-16T09:16:05;99278.00;;;2.80
75822;BMP180;64454;51.984;9.838;2024-01-16T09:18:31;99273.00;;;2.80
75822;BMP180;64454;51.984;9.838;2024-01-16T09:20:57;99271.00;;;2.80
75822;BMP180;64454;51.984;9.838;2024-01-16T09:23:23;99272.00;;;3.30
75822;BMP180;64454;51.984;9.838;2024-01-16T09:25:49;99265.00;;;3.00
75822;BMP180;64454;51.984;9.838;2024-01-16T09:28:15;99266.00;;;3.30
75822;BMP180;64454;51.984;9.838;2024-01-16T09:30:42;99270.00;;;3.40
75822;BMP180;64454;51.984;9.838;2024-01-16T09:33:08;99274.00;;;3.20
75822;BMP180;64454;51.984;9.838;2024-01-16T09:35:36;99281.00;;;3.10
75822;BMP180;64454;51.984;9.838;2024-01-16T09:38:03;99279.00;;;3.20
75822;BMP180;64454;51.984;9.838;2024-01-16T09:40:30;99272.00;;;2.80
75822;BMP180;64454;51.984;9.838;2024-01-16T09:42:57;99280.00;;;3.00
75822;BMP180;64454;51.984;9.838;2024-01-16T09:45:25;99285.00;;;3.40
75822;BMP180;64454;51.984;9.838;2024-01-16T09:47:52;99283.00;;;2.60
75822;BMP180;64454;51.984;9.838;2024-01-16T09:50:19;99285.00;;;3.00
75822;BMP180;64454;51.984;9.838;2024-01-16T09:52:46;99296.00;;;3.10
75822;BMP180;64454;51.984;9.838;2024-01-16T09:55:12;99293.00;;;3.10
75822;BMP180;64454;51.984;9.838;2024-01-16T09:57:40;99291.00;;;3.30
75822;BMP180;64454;51.984;9.838;2024-01-16T10:00:09;99292.00;;;3.20
75822;BMP180;64454;51.984;9.838;2024-01-16T10:02:38;99287.00;;;3.40
75822;BMP180;64454;51.984;9.838;2024-01-16T10:05:07;99289.00;;;3.40
75822;BMP180;64454;51.984;9.838;2024-01-16T10:07:37;99289.00;;;2.80
75822;BMP180;64454;51.984;9.838;2024-01-16T10:10:04;99295.00;;;3.00
75822;BMP180;64454;51.984;9.838;2024-01-16T10:12:31;99292.00;;;2.80
75822;BMP180;64454;51.984;9.838;2024-01-16T10:14:57;99292.00;;;2.80
75822;BMP180;64454;51.984;9.838;2024-01-16T10:17:36;99293.00;;;2.60
75822;BMP180;64454;51.984;9.838;2024-01-16T10:20:04;99296.00;;;3.10
75822;BMP180;64454;51.984;9.838;2024-01-16T10:22:31;99306.00;;;3.00
75822;BMP180;64454;51.984;9.838;2024-01-16T10:25:05;99300.00;;;2.60
75822;BMP180;64454;51.984;9.838;2024-01-16T10:27:31;99306.00;;;2.70
75822;BMP180;64454;51.984;9.838;2024-01-16T10:29:58;99307.00;;;2.70
75822;BMP180;64454;51.984;9.838;2024-01-16T10:32:28;99322.00;;;2.20
75822;BMP180;64454;51.984;9.838;2024-01-16T10:35:03;99322.00;;;2.80
75822;BMP180;64454;51.984;9.838;2024-01-16T10:37:30;99304.00;;;2.30
75822;BMP180;64454;51.984;9.838;2024-01-16T10:39:57;99316.00;;;2.60
75822;BMP180;64454;51.984;9.838;2024-01-16T10:42:23;99315.00;;;2.80
75822;BMP180;64454;51.984;9.838;2024-01-16T10:44:53;99305.00;;;3.00
75822;BMP180;64454;51.984;9.838;2024-01-16T10:47:22;99308.00;;;3.30
75822;BMP180;64454;51.984;9.838;2024-01-16T10:49:48;99316.00;;;3.30
75822;BMP180;64454;51.984;9.838;2024-01-16T10:52:14;99322.00;;;2.90
75822;BMP180;64454;51.984;9.838;2024-01-16T10:54:48;99311.00;;;3.40
75822;BMP180;64454;51.984;9.838;2024-01-16T10:57:17;99304.00;;;3.00
75822;BMP180;64454;51.984;9.838;2024-01-16T10:59:53;99311.00;;;3.10
75822;BMP180;64454;51.984;9.838;2024-01-16T11:02:29;99306.00;;;3.00
75822;BMP180;64454;51.984;9.838;2024-01-16T11:04:59;99304.00;;;3.00
75822;BMP180;64454;51.984;9.838;2024-01-16T11:07:27;99299.00;;;3.60
75822;BMP180;64454;51.984;9.838;2024-01-16T11:09:55;99316.00;;;3.50
75822;BMP180;64454;51.984;9.838;2024-01-16T11:12:22;99298.00;;;3.50
75822;BMP180;64454;51.984;9.838;2024-01-16T11:14:52;99296.00;;;3.20
75822;BMP180;64454;51.984;9.838;2024-01-16T11:17:19;99304.00;;;3.40
75822;BMP180;64454;51.984;9.838;2024-01-16T11:19:47;99309.00;;;3.20
75822;BMP180;64454;51.984;9.838;2024-01-16T11:22:15;99310.00;;;3.10
75822;BMP180;64454;51.984;9.838;2024-01-16T11:24:41;99308.00;;;2.90
75822;BMP180;64454;51.984;9.838;2024-01-16T11:27:08;99313.00;;;3.10
75822;BMP180;64454;51.984;9.838;2024-01-16T11:29:50;99310.00;;;3.40
75822;BMP180;64454;51.984;9.838;2024-01-16T11:32:34;99290.00;;;3.20
75822;BMP180;64454;51.984;9.838;2024-01-16T11:35:00;99293.00;;;3.20
75822;BMP180;64454;51.984;9.838;2024-01-16T11:37:29;99282.00;;;2.70
75822;BMP180;64454;51.984;9.838;2024-01-16T11:40:25;99288.00;;;3.10
75822;BMP180;64454;51.984;9.838;2024-01-16T11:42:54;99284.00;;;3.00
75822;BMP180;64454;51.984;9.838;2024-01-16T11:45:50;99286.00;;;3.30
75822;BMP180;64454;51.984;9.838;2024-01-16T11:48:17;99279.00;;;3.40
75822;BMP180;64454;51.984;9.838;2024-01-16T11:50:45;99281.00;;;3.50
75822;BMP180;64454;51.984;9.838;2024-01-16T11:53:35;99283.00;;;3.40
75822;BMP180;64454;51.984;9.838;2024-01-16T11:56:34;99277.00;;;3.40
75822;BMP180;64454;51.984;9.838;2024-01-16T11:59:46;99289.00;;;2.70
75822;BMP180;64454;51.984;9.838;2024-01-16T12:02:24;99288.00;;;3.30
75822;BMP180;64454;51.984;9.838;2024-01-16T12:04:53;99284.00;;;2.80
75822;BMP180;64454;51.984;9.838;2024-01-16T12:07:22;99280.00;;;3.20
75822;BMP180;64454;51.984;9.838;2024-01-16T12:09:48;99289.00;;;3.10
75822;BMP180;64454;51.984;9.838;2024-01-16T12:12:15;99282.00;;;3.20
75822;BMP180;64454;51.984;9.838;2024-01-16T12:14:51;99285.00;;;2.90
75822;BMP180;64454;51.984;9.838;2024-01-16T12:17:18;99285.00;;;2.90
75822;BMP180;64454;51.984;9.838;2024-01-16T12:19:46;99282.00;;;2.80
75822;BMP180;64454;51.984;9.838;2024-01-16T12:22:14;99289.00;;;2.70
75822;BMP180;64454;51.984;9.838;2024-01-16T12:24:41;99288.00;;;2.50
75822;BMP180;64454;51.984;9.838;2024-01-16T12:27:07;99289.00;;;2.60
75822;BMP180;64454;51.984;9.838;2024-01-16T12:29:34;99289.00;;;2.40
75822;BMP180;64454;51.984;9.838;2024-01-16T12:32:08;99283.00;;;2.60
75822;BMP180;64454;51.984;9.838;2024-01-16T12:34:44;99280.00;;;2.30
75822;BMP180;64454;51.984;9.838;2024-01-16T12:37:11;99282.00;;;2.30
75822;BMP180;64454;51.984;9.838;2024-01-16T12:39:38;99282.00;;;2.50
75822;BMP180;64454;51.984;9.838;2024-01-16T12:42:05;99277.00;;;2.60
75822;BMP180;64454;51.984;9.838;2024-01-16T12:44:31;99271.00;;;2.40
75822;BMP180;64454;51.984;9.838;2024-01-16T12:46:58;99265.00;;;2.50
75822;BMP180;64454;51.984;9.838;2024-01-16T12:49:25;99260.00;;;2.50
75822;BMP180;64454;51.984;9.838;2024-01-16T12:51:51;99268.00;;;2.60
75822;BMP180;64454;51.984;9.838;2024-01-16T12:54:19;99270.00;;;2.90
75822;BMP180;64454;51.984;9.838;2024-01-16T12:56:47;99274.00;;;3.00
75822;BMP180;64454;51.984;9.838;2024-01-16T12:59:14;99268.00;;;2.70
75822;BMP180;64454;51.984;9.838;2024-01-16T13:01:42;99269.00;;;2.40
75822;BMP180;64454;51.984;9.838;2024-01-16T13:04:09;99261.00;;;2.60
75822;BMP180;64454;51.984;9.838;2024-01-16T13:06:37;99265.00;;;2.70
75822;BMP180;64454;51.984;9.838;2024-01-16T13:09:07;99255.00;;;2.80
75822;BMP180;64454;51.984;9.838;2024-01-16T13:11:49;99251.00;;;2.90
75822;BMP180;64454;51.984;9.838;2024-01-16T13:14:15;99252.00;;;2.90
75822;BMP180;64454;51.984;9.838;2024-01-16T13:16:42;99243.00;;;2.90
75822;BMP180;64454;51.984;9.838;2024-01-16T13:19:08;99249.00;;;2.60
75822;BMP180;64454;51.984;9.838;2024-01-16T13:21:37;99239.00;;;2.60
75822;BMP180;64454;51.984;9.838;2024-01-16T13:24:04;99243.00;;;2.70
75822;BMP180;64454;51.984;9.838;2024-01-16T13:26:30;99243.00;;;2.40
75822;BMP180;64454;51.984;9.838;2024-01-16T13:28:57;99247.00;;;2.40
75822;BMP180;64454;51.984;9.838;2024-01-16T13:31:23;99242.00;;;2.30
75822;BMP180;64454;51.984;9.838;2024-01-16T13:33:49;99231.00;;;2.70
75822;BMP180;64454;51.984;9.838;2024-01-16T13:36:16;99239.00;;;2.90
75822;BMP180;64454;51.984;9.838;2024-01-16T13:38:42;99242.00;;;3.10
75822;BMP180;64454;51.984;9.838;2024-01-16T13:41:10;99244.00;;;3.10
75822;BMP180;64454;51.984;9.838;2024-01-16T13:43:36;99239.00;;;2.70
75822;BMP180;64454;51.984;9.838;2024-01-16T13:46:03;99224.00;;;2.40
75822;BMP180;64454;51.984;9.838;2024-01-16T13:48:30;99228.00;;;2.50
75822;BMP180;64454;51.984;9.838;2024-01-16T13:50:56;99224.00;;;2.50
75822;BMP180;64454;51.984;9.838;2024-01-16T13:53:22;99228.00;;;2.60
75822;BMP180;64454;51.984;9.838;2024-01-16T13:55:49;99218.00;;;2.50
75822;BMP180;64454;51.984;9.838;2024-01-16T13:58:15;99214.00;;;2.60
75822;BMP180;64454;51.984;9.838;2024-01-16T14:00:41;99216.00;;;2.80
75822;BMP180;64454;51.984;9.838;2024-01-16T14:03:07;99217.00;;;2.90
75822;BMP180;64454;51.984;9.838;2024-01-16T14:05:33;99212.00;;;2.70
75822;BMP180;64454;51.984;9.838;2024-01-16T14:08:02;99216.00;;;2.40
75822;BMP180;64454;51.984;9.838;2024-01-16T14:10:28;99219.00;;;2.30
75822;BMP180;64454;51.984;9.838;2024-01-16T14:12:55;99212.00;;;2.40
75822;BMP180;64454;51.984;9.838;2024-01-16T14:15:21;99215.00;;;2.20
75822;BMP180;64454;51.984;9.838;2024-01-16T14:17:50;99215.00;;;2.20
75822;BMP180;64454;51.984;9.838;2024-01-16T14:20:18;99212.00;;;1.80
75822;BMP180;64454;51.984;9.838;2024-01-16T14:22:47;99225.00;;;2.00